Time;durP1;ratioP1;P1;durP2;ratioP2;P2;SDS_P1;SDS_P2;PMS_P1;PMS_P2;Temp;Humidity;BMP_temperature;BMP_pressure;BME280_temperature;BME280_humidity;BME280_pressure;Samples;Min_cycle;Max_cycle;Signal;HPM_P1;HPM_P2
2022/10/17 00:02:25;;;;;;;81.63;52.60;;;10.20;99.90;;;;;;5097377;28;20080;-65
2022/10/17 00:04:51;;;;;;;91.03;51.92;;;10.20;99.90;;;;;;5097558;28;20016;-65
2022/10/17 00:07:16;;;;;;;79.38;51.10;;;10.20;99.90;;;;;;5079236;28;20032;-64
2022/10/17 00:09:43;;;;;;;81.25;48.95;;;10.20;99.90;;;;;;5097383;28;20020;-64
2022/10/17 00:12:08;;;;;;;77.65;48.10;;;10.20;99.90;;;;;;5097269;28;20067;-64
2022/10/17 00:14:35;;;;;;;87.00;48.55;;;10.20;99.90;;;;;;5097366;28;20035;-65
2022/10/17 00:17:01;;;;;;;84.47;47.15;;;10.30;99.90;;;;;;5097190;28;20511;-64
2022/10/17 00:19:27;;;;;;;77.22;47.08;;;10.40;99.90;;;;;;5097130;28;20031;-64
2022/10/17 00:21:53;;;;;;;77.18;47.70;;;10.50;99.90;;;;;;5097135;28;20036;-64
2022/10/17 00:24:18;;;;;;;83.60;48.83;;;10.40;99.90;;;;;;5096797;28;20108;-64
2022/10/17 00:26:44;;;;;;;78.07;49.53;;;10.40;99.90;;;;;;5096878;28;20127;-65
2022/10/17 00:29:10;;;;;;;84.60;48.55;;;10.40;99.90;;;;;;5097062;28;20024;-64
2022/10/17 00:31:36;;;;;;;80.80;47.78;;;10.20;99.90;;;;;;5096968;28;20536;-65
2022/10/17 00:34:02;;;;;;;74.35;46.03;;;10.20;99.90;;;;;;5096722;28;20092;-64
2022/10/17 00:36:28;;;;;;;77.40;44.85;;;10.10;99.90;;;;;;5096906;28;20381;-64
2022/10/17 00:38:57;;;;;;;76.28;46.67;;;10.10;99.90;;;;;;5096885;28;20038;-64
2022/10/17 00:41:27;;;;;;;67.38;43.38;;;10.20;99.90;;;;;;5096666;28;20461;-64
2022/10/17 00:44:01;;;;;;;66.45;41.88;;;10.20;99.90;;;;;;5096716;28;20075;-64
2022/10/17 00:46:35;;;;;;;60.90;39.97;;;10.10;99.90;;;;;;5058366;28;20035;-64
2022/10/17 00:49:09;;;;;;;73.80;44.00;;;10.00;99.90;;;;;;5076398;28;20063;-64
2022/10/17 00:51:41;;;;;;;73.38;44.38;;;10.00;99.90;;;;;;5076307;28;20107;-65
2022/10/17 00:54:10;;;;;;;84.25;43.78;;;10.00;99.90;;;;;;5075161;28;20032;-64
2022/10/17 00:56:37;;;;;;;74.45;44.70;;;9.90;99.90;;;;;;5076235;28;20040;-65
2022/10/17 00:59:03;;;;;;;72.45;45.83;;;9.80;99.90;;;;;;5058015;28;20474;-65
2022/10/17 01:01:29;;;;;;;68.57;42.22;;;9.70;99.90;;;;;;5076101;28;20118;-65
2022/10/17 01:03:57;;;;;;;65.53;40.70;;;9.70;99.90;;;;;;5058210;28;20074;-65
2022/10/17 01:06:23;;;;;;;70.15;41.78;;;9.70;99.90;;;;;;5075897;28;20045;-65
2022/10/17 01:08:48;;;;;;;67.65;40.90;;;9.70;99.90;;;;;;5075967;28;20029;-65
2022/10/17 01:11:38;;;;;;;69.78;42.85;;;9.70;99.90;;;;;;5075969;28;20028;-65
2022/10/17 01:14:52;;;;;;;65.97;39.78;;;9.70;99.90;;;;;;5075818;28;20028;-65
2022/10/17 01:17:36;;;;;;;62.83;38.38;;;9.70;99.90;;;;;;5020996;28;20397;-65
2022/10/17 01:20:27;;;;;;;66.93;40.13;;;9.60;99.90;;;;;;5068493;28;20421;-65
2022/10/17 01:22:59;;;;;;;67.20;41.30;;;9.60;99.90;;;;;;5095919;28;20044;-64
2022/10/17 01:25:34;;;;;;;62.55;39.97;;;9.50;99.90;;;;;;5095993;28;20043;-64
2022/10/17 01:28:06;;;;;;;62.42;38.90;;;9.50;99.90;;;;;;5077534;28;20089;-65
2022/10/17 01:30:54;;;;;;;57.22;38.38;;;9.50;99.90;;;;;;5077668;28;20028;-65
2022/10/17 01:33:57;;;;;;;64.28;38.95;;;9.40;99.90;;;;;;5095659;28;20036;-65
2022/10/17 01:36:23;;;;;;;63.30;39.22;;;9.40;99.90;;;;;;5077507;28;20538;-65
2022/10/17 01:39:04;;;;;;;65.45;39.60;;;9.40;99.90;;;;;;5077485;28;20028;-65
2022/10/17 01:41:42;;;;;;;62.22;37.08;;;9.40;99.90;;;;;;5077196;28;20032;-64
2022/10/17 01:44:13;;;;;;;56.67;36.85;;;9.30;99.90;;;;;;5077269;28;20077;-65
2022/10/17 01:46:55;;;;;;;63.60;38.00;;;9.30;99.90;;;;;;5095787;28;20060;-64
2022/10/17 01:49:25;;;;;;;62.75;37.28;;;9.30;99.90;;;;;;5095413;28;20054;-64
2022/10/17 01:52:05;;;;;;;58.60;36.33;;;9.30;99.90;;;;;;5077330;28;20028;-65
2022/10/17 01:54:57;;;;;;;62.28;37.67;;;9.30;99.90;;;;;;5095220;28;20039;-65
2022/10/17 01:57:29;;;;;;;55.35;34.78;;;9.20;99.90;;;;;;5095162;28;20043;-65
2022/10/17 01:59:56;;;;;;;59.47;34.60;;;9.20;99.90;;;;;;5077178;28;20032;-65
2022/10/17 02:02:24;;;;;;;57.53;36.60;;;9.30;99.90;;;;;;5095164;28;20085;-65
2022/10/17 02:04:52;;;;;;;56.45;34.83;;;9.30;99.90;;;;;;5076637;28;20119;-65
2022/10/17 02:07:19;;;;;;;55.80;35.30;;;9.40;99.90;;;;;;5076952;28;20035;-65
2022/10/17 02:09:45;;;;;;;59.22;36.92;;;9.30;99.90;;;;;;5076706;28;20027;-65
2022/10/17 02:12:12;;;;;;;61.65;36.63;;;9.20;99.90;;;;;;5095180;28;20063;-65
2022/10/17 02:15:15;;;;;;;59.60;36.33;;;9.20;99.90;;;;;;5076891;28;20020;-65
2022/10/17 02:17:43;;;;;;;65.65;36.65;;;9.20;99.90;;;;;;5081525;28;20066;-65
2022/10/17 02:20:24;;;;;;;61.00;35.92;;;9.10;99.90;;;;;;5076768;28;20032;-65
2022/10/17 02:23:02;;;;;;;59.03;36.20;;;9.00;99.90;;;;;;5073234;28;20055;-64
2022/10/17 02:25:44;;;;;;;59.33;35.53;;;9.00;99.90;;;;;;5074681;28;20025;-65
2022/10/17 02:28:17;;;;;;;63.20;36.92;;;9.00;99.90;;;;;;5073445;28;20024;-65
2022/10/17 02:30:55;;;;;;;54.25;32.47;;;9.00;99.90;;;;;;5073226;28;20060;-65
2022/10/17 02:33:33;;;;;;;58.65;34.03;;;9.10;99.90;;;;;;5074609;28;20028;-65
2022/10/17 02:36:05;;;;;;;57.20;34.72;;;9.20;99.90;;;;;;5073279;28;20482;-65
2022/10/17 02:38:33;;;;;;;59.60;36.58;;;9.10;99.90;;;;;;5073219;28;20029;-65
2022/10/17 02:41:01;;;;;;;57.30;36.13;;;8.90;99.90;;;;;;5073159;28;20047;-64
2022/10/17 02:43:28;;;;;;;57.33;36.30;;;8.80;99.90;;;;;;5073242;28;20025;-64
2022/10/17 02:45:55;;;;;;;60.03;36.92;;;8.80;99.90;;;;;;5060403;28;20077;-64
2022/10/17 02:48:26;;;;;;;54.72;34.72;;;8.80;99.90;;;;;;5074378;28;20027;-64
2022/10/17 02:51:20;;;;;;;58.60;35.42;;;8.90;99.90;;;;;;5074548;28;20040;-64
2022/10/17 02:54:03;;;;;;;50.22;32.25;;;8.80;99.90;;;;;;5056265;28;20040;-64
2022/10/17 02:56:35;;;;;;;55.65;33.20;;;8.80;99.90;;;;;;5056378;28;20055;-64
2022/10/17 02:59:04;;;;;;;54.97;34.13;;;8.70;99.90;;;;;;5056226;28;20379;-64
2022/10/17 03:01:30;;;;;;;52.35;31.83;;;8.80;99.90;;;;;;5056254;28;20132;-64
2022/10/17 03:04:10;;;;;;;51.38;30.80;;;8.80;99.90;;;;;;5056201;28;20289;-65
2022/10/17 03:06:37;;;;;;;48.40;29.70;;;9.00;99.90;;;;;;5056230;28;20040;-64
2022/10/17 03:09:03;;;;;;;48.60;30.20;;;8.90;99.90;;;;;;5056129;28;20039;-65
2022/10/17 03:11:29;;;;;;;53.05;33.38;;;8.90;99.90;;;;;;5056159;28;20024;-65
2022/10/17 03:13:55;;;;;;;55.83;34.22;;;9.00;99.90;;;;;;5074319;28;20078;-64
2022/10/17 03:16:21;;;;;;;54.22;35.78;;;9.00;99.90;;;;;;5057260;28;20405;-65
2022/10/17 03:18:47;;;;;;;56.80;34.05;;;9.00;99.90;;;;;;5060030;28;20440;-65
2022/10/17 03:21:13;;;;;;;57.10;33.50;;;9.10;99.90;;;;;;5076631;28;20032;-65
2022/10/17 03:23:39;;;;;;;55.05;33.63;;;9.10;99.90;;;;;;5076588;28;20049;-65
2022/10/17 03:26:07;;;;;;;49.30;32.70;;;9.10;99.90;;;;;;5076591;28;20550;-64
2022/10/17 03:28:34;;;;;;;54.53;33.20;;;9.10;99.90;;;;;;5076527;28;20067;-64
2022/10/17 03:31:07;;;;;;;51.35;31.58;;;9.00;99.90;;;;;;5076448;28;20036;-64
2022/10/17 03:33:33;;;;;;;48.97;32.10;;;9.00;99.90;;;;;;5076351;28;20432;-65
2022/10/17 03:35:59;;;;;;;49.58;31.83;;;8.90;99.90;;;;;;5076453;28;20028;-64
2022/10/17 03:38:25;;;;;;;60.08;32.90;;;9.00;99.90;;;;;;5076360;28;20035;-64
2022/10/17 03:40:55;;;;;;;55.20;32.83;;;9.10;99.90;;;;;;5076327;28;20036;-64
2022/10/17 03:43:21;;;;;;;52.53;31.27;;;9.10;99.90;;;;;;5076295;28;20400;-65
2022/10/17 03:45:47;;;;;;;56.55;33.67;;;9.20;99.90;;;;;;5064524;28;20265;-65
2022/10/17 03:48:13;;;;;;;54.75;33.38;;;9.10;99.90;;;;;;5077529;28;20025;-64
2022/10/17 03:50:39;;;;;;;54.30;32.70;;;9.30;99.90;;;;;;5077435;28;20032;-65
2022/10/17 03:53:05;;;;;;;53.03;32.85;;;9.30;99.90;;;;;;5077376;28;20025;-65
2022/10/17 03:55:30;;;;;;;58.58;34.45;;;9.00;99.90;;;;;;5059257;28;20029;-64
2022/10/17 03:57:56;;;;;;;49.60;33.35;;;9.00;99.90;;;;;;5059387;28;20047;-64
2022/10/17 04:00:22;;;;;;;54.80;33.08;;;8.80;99.90;;;;;;5059145;28;20047;-65
2022/10/17 04:02:54;;;;;;;53.58;32.55;;;8.70;99.90;;;;;;5059338;28;20364;-65
2022/10/17 04:05:20;;;;;;;57.63;34.03;;;8.60;99.90;;;;;;5077168;28;20094;-65
2022/10/17 04:07:47;;;;;;;57.60;33.60;;;8.60;99.90;;;;;;5059183;28;20064;-65
2022/10/17 04:10:15;;;;;;;56.55;32.10;;;8.60;99.90;;;;;;5059168;28;20475;-64
2022/10/17 04:12:41;;;;;;;53.13;32.22;;;8.50;99.90;;;;;;5059033;28;20033;-64
2022/10/17 04:15:08;;;;;;;54.97;31.88;;;8.50;99.90;;;;;;5059057;28;20067;-64
2022/10/17 04:17:35;;;;;;;54.42;32.00;;;8.50;99.90;;;;;;5059011;28;20028;-65
2022/10/17 04:20:01;;;;;;;56.22;33.13;;;8.40;99.90;;;;;;5076812;28;20031;-65
2022/10/17 04:22:27;;;;;;;52.28;32.50;;;8.40;99.90;;;;;;5075360;28;20171;-65
2022/10/17 04:24:53;;;;;;;56.72;34.53;;;8.40;99.90;;;;;;5076798;28;20040;-65
2022/10/17 04:27:31;;;;;;;61.80;34.45;;;8.30;99.90;;;;;;5075245;28;20512;-65
2022/10/17 04:29:57;;;;;;;58.60;32.58;;;8.30;99.90;;;;;;5075544;28;20109;-64
2022/10/17 04:32:24;;;;;;;69.35;32.55;;;8.30;99.90;;;;;;5075330;28;20059;-64
2022/10/17 04:35:09;;;;;;;60.35;32.75;;;8.40;99.90;;;;;;5076671;28;20516;-65
2022/10/17 04:37:36;;;;;;;63.25;33.25;;;8.30;99.90;;;;;;5075295;28;20119;-65
2022/10/17 04:40:09;;;;;;;64.68;33.63;;;8.30;99.90;;;;;;5075224;28;20056;-64
2022/10/17 04:42:35;;;;;;;69.93;34.92;;;8.30;99.90;;;;;;5075132;28;20032;-64
2022/10/17 04:45:03;;;;;;;64.07;33.60;;;8.40;99.90;;;;;;5069583;28;20070;-65
2022/10/17 04:47:29;;;;;;;70.95;34.20;;;8.40;99.90;;;;;;5058492;28;20035;-65
2022/10/17 04:49:55;;;;;;;65.97;32.58;;;8.40;99.90;;;;;;5058286;28;20033;-64
2022/10/17 04:52:22;;;;;;;68.57;35.00;;;8.40;99.90;;;;;;5058219;28;20036;-64
2022/10/17 04:54:49;;;;;;;79.07;35.78;;;8.20;99.90;;;;;;5058188;28;20396;-64
2022/10/17 04:57:17;;;;;;;72.93;33.97;;;8.10;99.90;;;;;;5058387;28;20078;-64
2022/10/17 04:59:52;;;;;;;77.78;34.42;;;8.00;99.90;;;;;;5058097;28;20440;-65
2022/10/17 05:02:39;;;;;;;72.75;34.17;;;8.00;99.90;;;;;;5058013;28;20028;-64
2022/10/17 05:05:05;;;;;;;67.88;34.13;;;8.10;99.90;;;;;;5057974;28;20478;-65
2022/10/17 05:07:31;;;;;;;67.78;35.00;;;8.10;99.90;;;;;;5058003;28;20512;-64
2022/10/17 05:10:02;;;;;;;;;;;8.10;99.90;;;;;;5058577;28;20037;-64
2022/10/17 05:12:29;;;;;;;66.70;33.28;;;8.00;99.90;;;;;;5057853;28;20029;-65
2022/10/17 05:14:55;;;;;;;68.60;35.92;;;8.10;99.90;;;;;;5058024;28;20486;-64
2022/10/17 05:17:23;;;;;;;72.50;37.13;;;8.10;99.90;;;;;;5051881;28;20035;-65
2022/10/17 05:19:49;;;;;;;61.20;34.60;;;7.90;99.90;;;;;;5074027;28;20025;-64
2022/10/17 05:22:16;;;;;;;59.65;34.53;;;7.90;99.90;;;;;;5076868;28;20094;-64
2022/10/17 05:24:42;;;;;;;65.38;34.83;;;7.90;99.90;;;;;;5063629;28;20031;-65
2022/10/17 05:27:10;;;;;;;66.85;35.60;;;8.10;99.90;;;;;;5087393;28;20032;-65
2022/10/17 05:29:36;;;;;;;63.95;36.40;;;8.30;99.90;;;;;;5075382;28;20387;-65
2022/10/17 05:32:10;;;;;;;65.47;35.83;;;8.60;99.90;;;;;;5057202;28;20039;-65
2022/10/17 05:34:36;;;;;;;68.22;36.70;;;9.00;99.90;;;;;;5057223;28;20036;-65
2022/10/17 05:37:02;;;;;;;55.83;32.53;;;9.30;99.90;;;;;;5057322;28;20482;-65
2022/10/17 05:39:28;;;;;;;65.55;33.03;;;9.70;99.90;;;;;;5061715;28;20032;-65
2022/10/17 05:41:56;;;;;;;66.63;33.83;;;10.40;99.90;;;;;;5075198;28;20024;-65
2022/10/17 05:44:22;;;;;;;65.10;35.63;;;10.50;99.90;;;;;;5090793;28;20488;-65
2022/10/17 05:46:53;;;;;;;;;;;10.90;99.90;;;;;;5079596;28;20027;-65
2022/10/17 05:49:21;;;;;;;70.15;35.65;;;11.40;99.90;;;;;;5070482;28;19908;-64
2022/10/17 05:51:47;;;;;;;79.38;41.03;;;11.90;99.90;;;;;;5065556;28;20498;-65
2022/10/17 05:54:15;;;;;;;91.35;41.40;;;12.30;99.90;;;;;;5078546;28;20029;-65
2022/10/17 05:56:44;;;;;;;80.93;42.83;;;12.70;99.90;;;;;;5091125;28;20039;-65
2022/10/17 05:59:10;;;;;;;85.20;41.33;;;12.90;99.90;;;;;;5062868;28;20032;-65
2022/10/17 06:01:46;;;;;;;99.97;42.20;;;13.20;99.90;;;;;;5066791;28;20040;-65
2022/10/17 06:04:12;;;;;;;85.18;41.97;;;13.40;99.90;;;;;;5070115;28;20473;-65
2022/10/17 06:06:40;;;;;;;85.90;42.55;;;13.50;99.90;;;;;;5058273;28;20052;-65
2022/10/17 06:09:07;;;;;;;81.97;42.40;;;13.60;99.90;;;;;;5060250;28;20025;-65
2022/10/17 06:11:37;;;;;;;79.90;42.90;;;13.80;99.90;;;;;;5066761;28;20489;-65
2022/10/17 06:14:05;;;;;;;76.20;42.13;;;14.00;99.90;;;;;;5065109;28;20067;-65
2022/10/17 06:16:32;;;;;;;73.50;40.97;;;14.40;99.90;;;;;;5073365;28;20043;-65
2022/10/17 06:19:01;;;;;;;77.07;38.53;;;14.70;99.90;;;;;;5064421;28;20031;-66
2022/10/17 06:21:28;;;;;;;69.82;39.08;;;15.20;99.90;;;;;;5073177;28;20039;-65
2022/10/17 06:24:12;;;;;;;71.40;37.45;;;15.30;99.90;;;;;;5101819;28;20052;-65
2022/10/17 06:26:40;;;;;;;83.32;42.33;;;15.40;99.90;;;;;;5061299;28;20025;-65
2022/10/17 06:29:07;;;;;;;70.05;38.92;;;15.20;99.90;;;;;;5072312;28;20115;-65
2022/10/17 06:31:41;;;;;;;61.85;36.05;;;14.90;99.90;;;;;;5068587;28;20032;-66
2022/10/17 06:34:14;;;;;;;69.00;37.83;;;14.80;99.90;;;;;;5072797;28;20062;-65
2022/10/17 06:36:43;;;;;;;65.53;36.17;;;15.10;99.90;;;;;;5071839;28;20036;-65
2022/10/17 06:39:10;;;;;;;73.60;37.42;;;15.20;99.90;;;;;;5071858;28;20279;-65
2022/10/17 06:41:44;;;;;;;71.60;40.80;;;15.60;99.90;;;;;;5068666;28;20378;-65
2022/10/17 06:44:11;;;;;;;74.72;42.20;;;16.20;99.90;;;;;;5070486;28;20401;-65
2022/10/17 06:46:59;;;;;;;78.70;39.55;;;16.40;98.00;;;;;;5068240;28;20097;-65
2022/10/17 06:49:27;;;;;;;78.03;40.08;;;16.80;98.60;;;;;;5067271;28;20421;-65
2022/10/17 06:52:11;;;;;;;71.80;36.72;;;17.00;95.10;;;;;;5072962;28;20497;-66
2022/10/17 06:54:45;;;;;;;79.15;38.03;;;17.10;95.00;;;;;;5071724;28;20028;-66
2022/10/17 06:57:38;;;;;;;92.68;40.25;;;17.20;96.00;;;;;;5071113;28;20025;-66
2022/10/17 07:00:23;;;;;;;88.85;39.15;;;17.00;95.70;;;;;;5072242;28;20048;-66
2022/10/17 07:02:52;;;;;;;79.63;38.95;;;17.60;94.20;;;;;;5070687;28;20466;-66
2022/10/17 07:05:19;;;;;;;83.75;38.45;;;18.20;93.00;;;;;;5072418;28;20079;-66
2022/10/17 07:07:46;;;;;;;72.03;37.42;;;18.50;92.40;;;;;;5073449;28;20112;-66
2022/10/17 07:10:13;;;;;;;69.50;33.90;;;18.70;90.40;;;;;;5072101;28;20448;-66
2022/10/17 07:12:39;;;;;;;71.32;37.15;;;18.50;90.40;;;;;;5071876;28;20386;-66
2022/10/17 07:15:08;;;;;;;57.45;30.58;;;18.80;89.90;;;;;;5070466;28;20035;-66
2022/10/17 07:17:34;;;;;;;51.30;30.77;;;18.90;90.80;;;;;;5072089;28;20071;-66
2022/10/17 07:20:00;;;;;;;55.63;32.28;;;19.50;90.00;;;;;;5073252;28;20029;-66
2022/10/17 07:22:29;;;;;;;55.17;32.65;;;19.70;85.90;;;;;;5056351;28;386878;-66
2022/10/17 07:24:57;;;;;;;57.03;29.52;;;18.90;86.70;;;;;;5060638;28;20475;-66
2022/10/17 07:27:29;;;;;;;51.20;29.15;;;19.30;85.90;;;;;;5072419;28;20028;-66
2022/10/17 07:29:55;;;;;;;47.17;28.48;;;19.70;86.90;;;;;;5073923;28;20390;-67
2022/10/17 07:32:34;;;;;;;63.50;31.52;;;19.70;84.70;;;;;;5072271;28;20112;-66
2022/10/17 07:35:00;;;;;;;61.30;33.92;;;19.70;82.90;;;;;;5071568;28;20098;-66
2022/10/17 07:37:26;;;;;;;63.33;32.10;;;19.60;83.80;;;;;;5071451;28;20028;-66
2022/10/17 07:39:55;;;;;;;64.45;32.70;;;19.90;82.70;;;;;;5071334;28;20462;-67
2022/10/17 07:42:22;;;;;;;58.95;31.98;;;19.50;85.20;;;;;;5069182;28;20021;-66
2022/10/17 07:44:49;;;;;;;66.70;35.65;;;20.00;83.90;;;;;;5060753;28;20021;-66
2022/10/17 07:47:15;;;;;;;62.17;33.03;;;19.90;83.80;;;;;;5058068;28;20494;-66
2022/10/17 07:49:44;;;;;;;64.47;32.67;;;20.20;84.20;;;;;;5070229;28;20028;-66
2022/10/17 07:52:13;;;;;;;57.47;31.20;;;20.50;80.00;;;;;;5063566;28;20059;-67
2022/10/17 07:54:39;;;;;;;59.55;32.33;;;20.40;80.40;;;;;;5063306;28;20056;-66
2022/10/17 07:57:06;;;;;;;60.05;31.02;;;20.70;78.00;;;;;;5068381;28;20024;-66
2022/10/17 07:59:32;;;;;;;65.03;32.95;;;20.50;78.40;;;;;;5071401;28;20107;-67
2022/10/17 08:01:59;;;;;;;61.17;32.25;;;20.50;79.00;;;;;;5069740;28;20060;-66
2022/10/17 08:04:26;;;;;;;63.78;33.13;;;20.10;80.80;;;;;;5069198;28;20060;-66
2022/10/17 08:06:52;;;;;;;61.60;31.98;;;20.70;80.10;;;;;;5056629;28;20086;-66
2022/10/17 08:09:19;;;;;;;64.38;30.30;;;21.00;80.30;;;;;;5072397;28;20017;-66
2022/10/17 08:11:45;;;;;;;58.15;31.10;;;21.50;77.70;;;;;;5076148;28;20105;-67
2022/10/17 08:14:12;;;;;;;49.28;26.50;;;21.40;75.40;;;;;;5073122;28;20094;-67
2022/10/17 08:16:39;;;;;;;55.50;26.90;;;21.50;71.50;;;;;;5073723;28;20033;-66
2022/10/17 08:19:10;;;;;;;61.47;28.48;;;21.60;73.50;;;;;;5068268;28;20074;-66
2022/10/17 08:21:36;;;;;;;46.97;25.48;;;22.10;72.90;;;;;;5076495;28;20028;-67
2022/10/17 08:24:03;;;;;;;39.92;23.85;;;22.30;69.70;;;;;;5093866;28;20856;-67
2022/10/17 08:26:29;;;;;;;45.20;24.60;;;23.00;69.70;;;;;;5061980;28;20021;-67
2022/10/17 08:28:58;;;;;;;33.17;20.27;;;23.50;65.10;;;;;;5071717;28;20029;-67
2022/10/17 08:31:24;;;;;;;30.27;21.20;;;23.50;62.30;;;;;;5051289;28;20573;-67
2022/10/17 08:33:50;;;;;;;48.30;24.63;;;23.60;63.20;;;;;;5068677;28;20116;-67
2022/10/17 08:36:19;;;;;;;45.63;26.85;;;24.00;62.00;;;;;;5075343;28;20040;-67
2022/10/17 08:38:45;;;;;;;44.50;25.55;;;23.60;61.70;;;;;;5067036;28;20033;-67
2022/10/17 08:41:25;;;;;;;31.40;21.10;;;23.60;61.30;;;;;;5068993;28;20031;-67
2022/10/17 08:44:06;;;;;;;32.65;19.92;;;23.80;60.60;;;;;;5060236;28;20028;-67
2022/10/17 08:46:37;;;;;;;44.47;24.80;;;23.80;59.70;;;;;;5072157;28;20045;-67
2022/10/17 08:49:10;;;;;;;50.92;25.13;;;23.80;60.10;;;;;;5066440;28;20041;-67
2022/10/17 08:51:53;;;;;;;47.63;23.23;;;23.90;60.10;;;;;;5069487;28;20508;-67
2022/10/17 08:54:29;;;;;;;42.13;22.08;;;23.90;59.50;;;;;;5073386;28;20170;-67
2022/10/17 08:56:55;;;;;;;36.20;21.67;;;24.30;59.80;;;;;;5073961;28;20037;-67
2022/10/17 08:59:29;;;;;;;37.70;21.25;;;24.10;58.60;;;;;;5066137;28;20024;-67
2022/10/17 09:01:57;;;;;;;43.92;21.45;;;23.90;60.80;;;;;;5055849;28;20040;-67
2022/10/17 09:04:52;;;;;;;44.42;21.70;;;24.00;60.30;;;;;;5061078;28;20051;-67
2022/10/17 09:07:23;;;;;;;45.17;24.08;;;24.60;58.50;;;;;;5072707;28;20040;-67
2022/10/17 09:10:14;;;;;;;36.50;20.77;;;24.70;58.40;;;;;;5066804;28;20039;-67
2022/10/17 09:13:14;;;;;;;40.95;22.65;;;25.20;58.20;;;;;;5067215;28;20036;-68
2022/10/17 09:16:03;;;;;;;46.17;24.43;;;25.40;56.70;;;;;;5078761;28;20036;-67
2022/10/17 09:19:15;;;;;;;45.38;23.20;;;25.60;57.10;;;;;;5066819;28;20025;-67
2022/10/17 09:21:51;;;;;;;48.30;23.42;;;25.30;56.30;;;;;;5053211;28;20079;-67
2022/10/17 09:24:38;;;;;;;37.53;22.52;;;25.60;57.40;;;;;;5074302;28;20049;-67
2022/10/17 09:27:13;;;;;;;43.58;22.63;;;26.30;55.40;;;;;;5083871;28;20059;-67
2022/10/17 09:29:40;;;;;;;58.03;24.75;;;26.40;53.50;;;;;;5086651;28;20081;-67
2022/10/17 09:32:18;;;;;;;39.95;20.65;;;26.70;54.00;;;;;;5075140;28;20031;-67
2022/10/17 09:34:44;;;;;;;32.83;20.98;;;26.90;53.60;;;;;;5075632;28;20043;-67
2022/10/17 09:37:15;;;;;;;41.67;22.65;;;26.10;53.70;;;;;;5086458;28;20036;-67
2022/10/17 09:39:43;;;;;;;39.40;20.75;;;26.60;54.20;;;;;;5092856;28;20028;-67
2022/10/17 09:42:17;;;;;;;40.13;22.02;;;27.00;54.90;;;;;;5095757;28;20035;-67
2022/10/17 09:45:15;;;;;;;50.40;22.60;;;26.90;52.70;;;;;;5094842;28;20027;-67
2022/10/17 09:48:09;;;;;;;39.50;20.25;;;27.30;52.60;;;;;;5042957;28;20097;-67
2022/10/17 09:50:35;;;;;;;34.97;18.40;;;26.60;51.80;;;;;;5094160;28;20016;-67
2022/10/17 09:53:25;;;;;;;34.28;19.08;;;27.30;51.40;;;;;;5094995;28;20118;-67
2022/10/17 09:55:54;;;;;;;;;;;27.60;50.00;;;;;;5091862;28;20016;-67
2022/10/17 09:58:21;;;;;;;42.03;20.17;;;27.50;50.00;;;;;;5095144;28;19912;-67
2022/10/17 10:00:47;;;;;;;48.47;20.50;;;27.70;49.80;;;;;;5093014;28;20071;-67
2022/10/17 10:03:22;;;;;;;36.55;18.45;;;27.50;49.90;;;;;;5094910;28;20020;-67
2022/10/17 10:06:10;;;;;;;32.95;19.42;;;27.90;52.00;;;;;;5092477;28;20066;-67
2022/10/17 10:08:51;;;;;;;39.50;19.33;;;28.10;48.60;;;;;;5081724;28;20560;-68
2022/10/17 10:11:21;;;;;;;36.80;18.70;;;28.40;48.40;;;;;;5083937;28;20043;-67
2022/10/17 10:13:50;;;;;;;29.88;17.50;;;28.20;48.40;;;;;;5087443;28;20028;-67
2022/10/17 10:16:30;;;;;;;38.10;18.83;;;28.40;48.50;;;;;;5093097;28;20035;-68
2022/10/17 10:18:56;;;;;;;34.03;18.35;;;28.60;47.80;;;;;;5091856;28;20450;-67
2022/10/17 10:21:25;;;;;;;27.90;17.92;;;28.80;48.10;;;;;;5090927;28;20031;-67
2022/10/17 10:24:09;;;;;;;33.40;17.35;;;29.00;46.80;;;;;;5084361;28;20040;-67
2022/10/17 10:26:48;;;;;;;37.90;18.38;;;29.00;46.90;;;;;;5093765;28;20343;-67
2022/10/17 10:29:21;;;;;;;33.13;16.55;;;29.50;45.50;;;;;;5094329;28;20081;-67
2022/10/17 10:31:48;;;;;;;37.25;16.20;;;29.10;45.90;;;;;;5087315;28;20479;-68
2022/10/17 10:34:29;;;;;;;30.35;16.23;;;29.10;46.20;;;;;;5091644;28;20024;-67
2022/10/17 10:37:13;;;;;;;28.17;15.57;;;28.90;45.70;;;;;;5094333;28;20024;-67
2022/10/17 10:39:50;;;;;;;25.73;15.25;;;29.40;45.60;;;;;;5089790;28;20024;-67
2022/10/17 10:42:41;;;;;;;38.45;16.40;;;29.30;45.00;;;;;;5086740;28;20112;-67
2022/10/17 10:45:48;;;;;;;35.13;16.15;;;29.50;45.40;;;;;;5093303;28;20020;-67
2022/10/17 10:48:26;;;;;;;21.38;12.95;;;29.60;44.90;;;;;;4992247;28;20101;-67
2022/10/17 10:50:57;;;;;;;19.77;12.38;;;28.70;43.90;;;;;;4991769;28;20046;-67
2022/10/17 10:53:37;;;;;;;42.17;17.08;;;29.10;43.80;;;;;;4992169;28;20035;-67
2022/10/17 10:56:33;;;;;;;23.63;14.95;;;28.70;45.00;;;;;;5010680;28;20411;-67
2022/10/17 10:59:07;;;;;;;29.33;15.25;;;29.60;45.50;;;;;;5011675;28;20033;-67
2022/10/17 11:01:54;;;;;;;22.88;14.75;;;30.00;44.40;;;;;;5021495;28;20080;-67
2022/10/17 11:04:26;;;;;;;22.95;14.15;;;30.00;44.50;;;;;;5011557;28;20037;-68
2022/10/17 11:06:59;;;;;;;27.77;16.08;;;30.60;44.20;;;;;;5011476;28;20026;-67
2022/10/17 11:09:35;;;;;;;24.33;15.43;;;31.10;42.60;;;;;;5011077;28;20041;-68
2022/10/17 11:12:13;;;;;;;28.30;14.45;;;30.80;42.20;;;;;;5013902;28;20359;-67
2022/10/17 11:14:49;;;;;;;30.25;14.40;;;30.60;41.60;;;;;;5016615;28;20030;-67
2022/10/17 11:17:18;;;;;;;29.88;15.43;;;30.40;42.20;;;;;;5019586;28;20600;-67
2022/10/17 11:20:19;;;;;;;34.33;16.42;;;30.90;41.80;;;;;;5017538;28;20040;-67
2022/10/17 11:22:48;;;;;;;34.67;16.52;;;30.50;40.40;;;;;;5049003;28;20040;-67
2022/10/17 11:25:36;;;;;;;26.02;13.95;;;30.30;41.50;;;;;;5092345;28;20078;-67
2022/10/17 11:28:09;;;;;;;29.02;14.68;;;28.80;42.70;;;;;;5078353;28;20032;-67
2022/10/17 11:31:00;;;;;;;31.98;15.50;;;29.00;45.20;;;;;;5092714;28;20035;-67
2022/10/17 11:33:33;;;;;;;28.85;13.30;;;30.30;43.10;;;;;;5079488;28;20047;-67
2022/10/17 11:36:04;;;;;;;21.10;12.77;;;30.40;41.40;;;;;;5090709;28;20036;-67
2022/10/17 11:38:36;;;;;;;28.67;13.35;;;30.60;40.80;;;;;;5096738;28;20032;-67
2022/10/17 11:41:03;;;;;;;28.38;13.60;;;31.00;41.70;;;;;;5097396;28;20035;-67
2022/10/17 11:43:45;;;;;;;19.40;12.50;;;31.10;41.50;;;;;;5096818;28;20024;-67
2022/10/17 11:46:33;;;;;;;30.55;12.52;;;31.00;40.10;;;;;;5097332;28;20055;-67
2022/10/17 11:49:03;;;;;;;25.23;13.23;;;30.60;40.40;;;;;;5097400;28;20035;-67
2022/10/17 11:51:35;;;;;;;22.63;12.80;;;30.80;38.60;;;;;;5097609;28;20028;-67
2022/10/17 11:54:13;;;;;;;26.90;12.43;;;30.50;40.00;;;;;;5097226;28;20032;-67
2022/10/17 11:56:57;;;;;;;18.33;10.73;;;31.10;39.70;;;;;;5093552;28;20028;-67
2022/10/17 11:59:51;;;;;;;21.20;12.77;;;31.70;40.30;;;;;;5091713;28;20063;-67
2022/10/17 12:02:45;;;;;;;23.55;11.88;;;29.40;40.30;;;;;;5065173;28;20058;-67
2022/10/17 12:05:54;;;;;;;21.85;11.38;;;30.20;41.40;;;;;;5092867;28;20036;-67
2022/10/17 12:08:59;;;;;;;22.00;11.10;;;30.50;39.50;;;;;;5013304;28;20066;-67
2022/10/17 12:11:55;;;;;;;26.10;12.93;;;30.10;40.30;;;;;;5014671;28;20041;-67
2022/10/17 12:14:44;;;;;;;33.30;14.48;;;30.30;40.90;;;;;;5014725;28;20104;-67
2022/10/17 12:17:42;;;;;;;18.63;11.47;;;30.40;41.50;;;;;;4959870;28;20516;-67
2022/10/17 12:20:23;;;;;;;13.10;9.80;;;30.60;40.40;;;;;;4994944;28;20323;-67
2022/10/17 12:22:54;;;;;;;16.40;10.35;;;29.70;39.70;;;;;;5014153;28;20042;-67
2022/10/17 12:25:28;;;;;;;14.00;10.68;;;29.90;40.50;;;;;;5014747;28;20030;-67
2022/10/17 12:28:25;;;;;;;16.70;10.90;;;30.00;40.60;;;;;;5002458;28;20038;-67
2022/10/17 12:31:01;;;;;;;15.13;10.27;;;30.40;41.50;;;;;;4986998;28;20045;-67
2022/10/17 12:33:33;;;;;;;30.65;11.07;;;30.30;40.80;;;;;;4994126;28;20109;-67
2022/10/17 12:36:17;;;;;;;21.95;10.73;;;30.00;41.60;;;;;;4991863;28;20026;-67
2022/10/17 12:39:05;;;;;;;27.45;12.40;;;29.60;43.70;;;;;;5017198;28;20036;-67
2022/10/17 12:41:37;;;;;;;17.08;11.32;;;29.80;40.90;;;;;;5066386;28;20044;-67
2022/10/17 12:44:12;;;;;;;16.42;10.68;;;29.40;41.60;;;;;;5073206;28;20031;-66
2022/10/17 12:46:42;;;;;;;19.50;11.35;;;29.60;42.80;;;;;;5064247;28;20021;-67
2022/10/17 12:49:46;;;;;;;16.33;9.50;;;30.20;42.60;;;;;;5064768;28;20079;-67
2022/10/17 12:52:24;;;;;;;25.67;10.93;;;30.70;42.40;;;;;;5055864;28;20036;-67
2022/10/17 12:55:01;;;;;;;18.08;8.88;;;30.20;43.70;;;;;;5075839;28;20513;-67
2022/10/17 12:57:49;;;;;;;18.02;9.50;;;30.50;42.40;;;;;;5064009;28;20052;-67
2022/10/17 13:00:32;;;;;;;17.98;10.05;;;30.50;43.40;;;;;;5062582;28;20090;-67
2022/10/17 13:03:10;;;;;;;24.08;10.45;;;30.60;43.50;;;;;;5070614;28;20429;-67